sensor_id;sensor_type;location;lat;lon;timestamp;P1;durP1;ratioP1;P2;durP2;ratioP2
5277;SDS011;2662;51.194;6.614;2024-01-11T00:00:09;2.72;;;2.53;;
5277;SDS011;2662;51.194;6.614;2024-01-11T00:02:37;3.30;;;2.97;;
5277;SDS011;2662;51.194;6.614;2024-01-11T00:05:04;8.53;;;3.67;;
5277;SDS011;2662;51.194;6.614;2024-01-11T00:07:32;5.53;;;1.60;;
5277;SDS011;2662;51.194;6.614;2024-01-11T00:10:00;5.18;;;2.33;;
5277;SDS011;2662;51.194;6.614;2024-01-11T00:12:28;2.00;;;1.45;;
5277;SDS011;2662;51.194;6.614;2024-01-11T00:14:56;3.50;;;2.35;;
5277;SDS011;2662;51.194;6.614;2024-01-11T00:17:23;2.45;;;2.35;;
5277;SDS011;2662;51.194;6.614;2024-01-11T00:19:50;2.13;;;2.03;;
5277;SDS011;2662;51.194;6.614;2024-01-11T00:22:19;3.45;;;2.00;;
5277;SDS011;2662;51.194;6.614;2024-01-11T00:24:45;5.07;;;1.27;;
5277;SDS011;2662;51.194;6.614;2024-01-11T00:27:12;3.58;;;1.67;;
5277;SDS011;2662;51.194;6.614;2024-01-11T00:29:39;2.83;;;2.63;;
5277;SDS011;2662;51.194;6.614;2024-01-11T00:32:06;2.78;;;1.92;;
5277;SDS011;2662;51.194;6.614;2024-01-11T00:34:32;6.15;;;1.52;;
5277;SDS011;2662;51.194;6.614;2024-01-11T00:37:01;6.93;;;3.35;;
5277;SDS011;2662;51.194;6.614;2024-01-11T00:39:29;2.38;;;2.03;;
5277;SDS011;2662;51.194;6.614;2024-01-11T00:41:56;9.25;;;4.22;;
5277;SDS011;2662;51.194;6.614;2024-01-11T00:44:22;3.17;;;2.45;;
5277;SDS011;2662;51.194;6.614;2024-01-11T00:46:49;8.50;;;2.50;;
5277;SDS011;2662;51.194;6.614;2024-01-11T00:49:16;3.22;;;2.15;;
5277;SDS011;2662;51.194;6.614;2024-01-11T00:51:43;2.42;;;1.77;;
5277;SDS011;2662;51.194;6.614;2024-01-11T00:54:09;2.53;;;2.33;;
5277;SDS011;2662;51.194;6.614;2024-01-11T00:56:38;6.97;;;2.35;;
5277;SDS011;2662;51.194;6.614;2024-01-11T00:59:04;0.80;;;0.80;;
5277;SDS011;2662;51.194;6.614;2024-01-11T01:01:31;2.60;;;1.55;;
5277;SDS011;2662;51.194;6.614;2024-01-11T01:03:58;4.18;;;2.45;;
5277;SDS011;2662;51.194;6.614;2024-01-11T01:06:25;2.83;;;2.63;;
5277;SDS011;2662;51.194;6.614;2024-01-11T01:08:52;2.90;;;1.83;;
5277;SDS011;2662;51.194;6.614;2024-01-11T01:11:19;1.70;;;1.60;;
5277;SDS011;2662;51.194;6.614;2024-01-11T01:13:47;2.55;;;2.35;;
5277;SDS011;2662;51.194;6.614;2024-01-11T01:16:14;2.53;;;2.40;;
5277;SDS011;2662;51.194;6.614;2024-01-11T01:18:42;4.88;;;1.58;;
5277;SDS011;2662;51.194;6.614;2024-01-11T01:21:09;1.88;;;1.65;;
5277;SDS011;2662;51.194;6.614;2024-01-11T01:23:36;2.13;;;1.50;;
5277;SDS011;2662;51.194;6.614;2024-01-11T01:26:03;2.90;;;2.70;;
5277;SDS011;2662;51.194;6.614;2024-01-11T01:28:29;2.00;;;1.90;;
5277;SDS011;2662;51.194;6.614;2024-01-11T01:30:58;1.58;;;1.15;;
5277;SDS011;2662;51.194;6.614;2024-01-11T01:33:24;4.35;;;2.80;;
5277;SDS011;2662;51.194;6.614;2024-01-11T01:35:51;7.90;;;2.35;;
5277;SDS011;2662;51.194;6.614;2024-01-11T01:38:18;2.60;;;2.40;;
5277;SDS011;2662;51.194;6.614;2024-01-11T01:40:44;1.75;;;1.40;;
5277;SDS011;2662;51.194;6.614;2024-01-11T01:43:11;2.03;;;1.83;;
5277;SDS011;2662;51.194;6.614;2024-01-11T01:45:39;2.95;;;1.77;;
5277;SDS011;2662;51.194;6.614;2024-01-11T01:48:07;1.30;;;1.17;;
5277;SDS011;2662;51.194;6.614;2024-01-11T01:50:34;3.80;;;1.75;;
5277;SDS011;2662;51.194;6.614;2024-01-11T01:53:01;6.13;;;4.07;;
5277;SDS011;2662;51.194;6.614;2024-01-11T01:55:28;2.80;;;2.70;;
5277;SDS011;2662;51.194;6.614;2024-01-11T01:57:55;2.90;;;2.70;;
5277;SDS011;2662;51.194;6.614;2024-01-11T02:00:24;1.40;;;1.38;;
5277;SDS011;2662;51.194;6.614;2024-01-11T02:02:51;2.22;;;1.73;;
5277;SDS011;2662;51.194;6.614;2024-01-11T02:05:20;3.85;;;2.78;;
5277;SDS011;2662;51.194;6.614;2024-01-11T02:07:47;1.58;;;1.48;;
5277;SDS011;2662;51.194;6.614;2024-01-11T02:10:14;2.45;;;1.75;;
5277;SDS011;2662;51.194;6.614;2024-01-11T02:12:42;1.30;;;1.30;;
5277;SDS011;2662;51.194;6.614;2024-01-11T02:15:10;5.38;;;2.35;;
5277;SDS011;2662;51.194;6.614;2024-01-11T02:17:37;2.63;;;2.42;;
5277;SDS011;2662;51.194;6.614;2024-01-11T02:20:07;4.10;;;3.22;;
5277;SDS011;2662;51.194;6.614;2024-01-11T02:22:36;2.80;;;1.23;;
5277;SDS011;2662;51.194;6.614;2024-01-11T02:25:08;0.70;;;0.70;;
5277;SDS011;2662;51.194;6.614;2024-01-11T02:27:44;3.65;;;1.83;;
5277;SDS011;2662;51.194;6.614;2024-01-11T02:30:12;1.63;;;1.50;;
5277;SDS011;2662;51.194;6.614;2024-01-11T02:32:40;2.47;;;2.10;;
5277;SDS011;2662;51.194;6.614;2024-01-11T02:35:07;2.42;;;2.00;;
5277;SDS011;2662;51.194;6.614;2024-01-11T02:37:35;4.25;;;2.25;;
5277;SDS011;2662;51.194;6.614;2024-01-11T02:40:04;3.05;;;1.70;;
5277;SDS011;2662;51.194;6.614;2024-01-11T02:42:33;2.78;;;2.13;;
5277;SDS011;2662;51.194;6.614;2024-01-11T02:45:00;1.08;;;1.02;;
5277;SDS011;2662;51.194;6.614;2024-01-11T02:47:28;2.78;;;2.60;;
5277;SDS011;2662;51.194;6.614;2024-01-11T02:49:55;1.52;;;1.15;;
5277;SDS011;2662;51.194;6.614;2024-01-11T02:52:22;2.05;;;1.42;;
5277;SDS011;2662;51.194;6.614;2024-01-11T02:54:49;1.95;;;1.63;;
5277;SDS011;2662;51.194;6.614;2024-01-11T02:57:16;6.68;;;3.15;;
5277;SDS011;2662;51.194;6.614;2024-01-11T02:59:44;2.22;;;1.70;;
5277;SDS011;2662;51.194;6.614;2024-01-11T03:02:11;2.25;;;2.05;;
5277;SDS011;2662;51.194;6.614;2024-01-11T03:04:37;2.90;;;2.65;;
5277;SDS011;2662;51.194;6.614;2024-01-11T03:07:04;3.63;;;1.10;;
5277;SDS011;2662;51.194;6.614;2024-01-11T03:09:31;1.40;;;1.38;;
5277;SDS011;2662;51.194;6.614;2024-01-11T03:11:59;2.08;;;1.70;;
5277;SDS011;2662;51.194;6.614;2024-01-11T03:14:26;8.40;;;2.10;;
5277;SDS011;2662;51.194;6.614;2024-01-11T03:16:54;3.45;;;2.05;;
5277;SDS011;2662;51.194;6.614;2024-01-11T03:19:20;3.20;;;2.53;;
5277;SDS011;2662;51.194;6.614;2024-01-11T03:21:47;3.25;;;1.98;;
5277;SDS011;2662;51.194;6.614;2024-01-11T03:24:14;3.00;;;2.40;;
5277;SDS011;2662;51.194;6.614;2024-01-11T03:26:41;3.80;;;2.00;;
5277;SDS011;2662;51.194;6.614;2024-01-11T03:29:07;17.60;;;3.70;;
5277;SDS011;2662;51.194;6.614;2024-01-11T03:31:34;2.30;;;1.85;;
5277;SDS011;2662;51.194;6.614;2024-01-11T03:34:04;8.48;;;2.72;;
5277;SDS011;2662;51.194;6.614;2024-01-11T03:36:31;2.58;;;1.70;;
5277;SDS011;2662;51.194;6.614;2024-01-11T03:38:57;3.72;;;1.63;;
5277;SDS011;2662;51.194;6.614;2024-01-11T03:41:24;5.50;;;2.17;;
5277;SDS011;2662;51.194;6.614;2024-01-11T03:43:51;1.23;;;1.23;;
5277;SDS011;2662;51.194;6.614;2024-01-11T03:46:18;3.60;;;3.15;;
5277;SDS011;2662;51.194;6.614;2024-01-11T03:48:45;5.60;;;2.03;;
5277;SDS011;2662;51.194;6.614;2024-01-11T03:51:13;3.30;;;1.77;;
5277;SDS011;2662;51.194;6.614;2024-01-11T03:53:40;3.78;;;2.17;;
5277;SDS011;2662;51.194;6.614;2024-01-11T03:56:07;4.15;;;3.10;;
5277;SDS011;2662;51.194;6.614;2024-01-11T03:58:35;4.15;;;1.98;;
5277;SDS011;2662;51.194;6.614;2024-01-11T04:01:04;1.65;;;1.65;;
5277;SDS011;2662;51.194;6.614;2024-01-11T04:03:32;4.57;;;2.80;;
5277;SDS011;2662;51.194;6.614;2024-01-11T04:05:59;2.08;;;1.98;;
5277;SDS011;2662;51.194;6.614;2024-01-11T04:08:27;2.28;;;2.17;;
5277;SDS011;2662;51.194;6.614;2024-01-11T04:10:53;5.20;;;2.13;;
5277;SDS011;2662;51.194;6.614;2024-01-11T04:13:20;0.40;;;0.40;;
5277;SDS011;2662;51.194;6.614;2024-01-11T04:15:47;4.78;;;2.75;;
5277;SDS011;2662;51.194;6.614;2024-01-11T04:18:14;2.00;;;1.90;;
5277;SDS011;2662;51.194;6.614;2024-01-11T04:20:41;6.35;;;3.03;;
5277;SDS011;2662;51.194;6.614;2024-01-11T04:23:07;1.17;;;1.13;;
5277;SDS011;2662;51.194;6.614;2024-01-11T04:25:36;3.30;;;2.15;;
5277;SDS011;2662;51.194;6.614;2024-01-11T04:28:03;4.55;;;2.13;;
5277;SDS011;2662;51.194;6.614;2024-01-11T04:30:30;4.53;;;2.45;;
5277;SDS011;2662;51.194;6.614;2024-01-11T04:32:57;4.45;;;2.25;;
5277;SDS011;2662;51.194;6.614;2024-01-11T04:35:25;4.85;;;3.78;;
5277;SDS011;2662;51.194;6.614;2024-01-11T04:37:51;7.70;;;3.90;;
5277;SDS011;2662;51.194;6.614;2024-01-11T04:40:18;3.47;;;1.35;;
5277;SDS011;2662;51.194;6.614;2024-01-11T04:42:46;9.30;;;2.70;;
5277;SDS011;2662;51.194;6.614;2024-01-11T04:45:13;4.95;;;2.90;;
5277;SDS011;2662;51.194;6.614;2024-01-11T04:47:40;4.85;;;1.83;;
5277;SDS011;2662;51.194;6.614;2024-01-11T04:50:07;3.88;;;2.70;;
5277;SDS011;2662;51.194;6.614;2024-01-11T04:52:34;3.17;;;2.92;;
5277;SDS011;2662;51.194;6.614;2024-01-11T04:55:01;5.13;;;3.42;;
5277;SDS011;2662;51.194;6.614;2024-01-11T04:57:28;3.63;;;3.28;;
5277;SDS011;2662;51.194;6.614;2024-01-11T04:59:56;0.75;;;0.60;;
5277;SDS011;2662;51.194;6.614;2024-01-11T05:02:22;9.57;;;2.17;;
5277;SDS011;2662;51.194;6.614;2024-01-11T05:04:49;2.65;;;1.55;;
5277;SDS011;2662;51.194;6.614;2024-01-11T05:07:16;2.10;;;1.92;;
5277;SDS011;2662;51.194;6.614;2024-01-11T05:09:43;3.33;;;1.50;;
5277;SDS011;2662;51.194;6.614;2024-01-11T05:12:09;2.35;;;2.15;;
5277;SDS011;2662;51.194;6.614;2024-01-11T05:14:36;4.43;;;2.40;;
5277;SDS011;2662;51.194;6.614;2024-01-11T05:17:04;3.83;;;2.42;;
5277;SDS011;2662;51.194;6.614;2024-01-11T05:19:31;23.90;;;4.47;;
5277;SDS011;2662;51.194;6.614;2024-01-11T05:21:58;1.88;;;1.60;;
5277;SDS011;2662;51.194;6.614;2024-01-11T05:24:25;4.07;;;3.67;;
5277;SDS011;2662;51.194;6.614;2024-01-11T05:26:51;3.38;;;2.28;;
5277;SDS011;2662;51.194;6.614;2024-01-11T05:29:18;2.65;;;1.80;;
5277;SDS011;2662;51.194;6.614;2024-01-11T05:31:45;7.07;;;4.82;;
5277;SDS011;2662;51.194;6.614;2024-01-11T05:34:13;5.75;;;3.78;;
5277;SDS011;2662;51.194;6.614;2024-01-11T05:36:40;3.15;;;1.67;;
5277;SDS011;2662;51.194;6.614;2024-01-11T05:39:06;4.95;;;1.35;;
5277;SDS011;2662;51.194;6.614;2024-01-11T05:41:33;4.05;;;2.58;;
5277;SDS011;2662;51.194;6.614;2024-01-11T05:44:00;1.88;;;1.77;;
5277;SDS011;2662;51.194;6.614;2024-01-11T05:46:27;6.38;;;2.47;;
5277;SDS011;2662;51.194;6.614;2024-01-11T05:48:53;3.72;;;2.33;;
5277;SDS011;2662;51.194;6.614;2024-01-11T05:51:21;1.98;;;1.85;;
5277;SDS011;2662;51.194;6.614;2024-01-11T05:53:48;3.60;;;2.25;;
5277;SDS011;2662;51.194;6.614;2024-01-11T05:56:15;1.70;;;1.55;;
5277;SDS011;2662;51.194;6.614;2024-01-11T05:58:42;1.35;;;1.35;;
5277;SDS011;2662;51.194;6.614;2024-01-11T06:01:09;3.85;;;2.50;;
5277;SDS011;2662;51.194;6.614;2024-01-11T06:03:35;3.05;;;2.13;;
5277;SDS011;2662;51.194;6.614;2024-01-11T06:06:03;3.35;;;3.05;;
5277;SDS011;2662;51.194;6.614;2024-01-11T06:08:33;2.25;;;1.50;;
5277;SDS011;2662;51.194;6.614;2024-01-11T06:11:00;7.15;;;2.20;;
5277;SDS011;2662;51.194;6.614;2024-01-11T06:13:27;4.00;;;2.33;;
5277;SDS011;2662;51.194;6.614;2024-01-11T06:15:53;1.70;;;1.58;;
5277;SDS011;2662;51.194;6.614;2024-01-11T06:18:20;1.70;;;1.60;;
5277;SDS011;2662;51.194;6.614;2024-01-11T06:20:47;4.75;;;2.42;;
5277;SDS011;2662;51.194;6.614;2024-01-11T06:23:14;7.53;;;4.20;;
5277;SDS011;2662;51.194;6.614;2024-01-11T06:25:43;3.95;;;3.00;;
5277;SDS011;2662;51.194;6.614;2024-01-11T06:28:11;2.83;;;2.53;;
5277;SDS011;2662;51.194;6.614;2024-01-11T06:30:37;5.30;;;3.10;;
5277;SDS011;2662;51.194;6.614;2024-01-11T06:33:04;2.70;;;1.63;;
5277;SDS011;2662;51.194;6.614;2024-01-11T06:35:31;3.17;;;1.70;;
5277;SDS011;2662;51.194;6.614;2024-01-11T06:37:58;3.13;;;2.13;;
5277;SDS011;2662;51.194;6.614;2024-01-11T06:40:24;1.75;;;1.30;;
5277;SDS011;2662;51.194;6.614;2024-01-11T06:42:53;4.20;;;2.45;;
5277;SDS011;2662;51.194;6.614;2024-01-11T06:45:20;4.00;;;2.00;;
5277;SDS011;2662;51.194;6.614;2024-01-11T06:47:47;1.63;;;1.52;;
5277;SDS011;2662;51.194;6.614;2024-01-11T06:50:14;3.92;;;2.42;;
5277;SDS011;2662;51.194;6.614;2024-01-11T06:52:41;3.38;;;2.50;;
5277;SDS011;2662;51.194;6.614;2024-01-11T06:55:08;1.92;;;1.73;;
5277;SDS011;2662;51.194;6.614;2024-01-11T06:57:36;4.93;;;3.35;;
5277;SDS011;2662;51.194;6.614;2024-01-11T07:00:04;5.45;;;4.18;;
5277;SDS011;2662;51.194;6.614;2024-01-11T07:02:33;4.25;;;2.22;;
5277;SDS011;2662;51.194;6.614;2024-01-11T07:05:00;3.03;;;1.77;;
5277;SDS011;2662;51.194;6.614;2024-01-11T07:07:27;2.00;;;1.63;;
5277;SDS011;2662;51.194;6.614;2024-01-11T07:09:54;8.50;;;3.75;;
5277;SDS011;2662;51.194;6.614;2024-01-11T07:12:21;7.93;;;3.67;;
5277;SDS011;2662;51.194;6.614;2024-01-11T07:14:48;1.20;;;1.20;;
5277;SDS011;2662;51.194;6.614;2024-01-11T07:17:16;2.47;;;1.70;;
5277;SDS011;2662;51.194;6.614;2024-01-11T07:19:42;3.08;;;1.25;;
5277;SDS011;2662;51.194;6.614;2024-01-11T07:22:09;5.20;;;2.25;;
5277;SDS011;2662;51.194;6.614;2024-01-11T07:24:36;6.88;;;3.33;;
5277;SDS011;2662;51.194;6.614;2024-01-11T07:27:04;1.83;;;1.73;;
5277;SDS011;2662;51.194;6.614;2024-01-11T07:29:31;5.35;;;1.92;;
5277;SDS011;2662;51.194;6.614;2024-01-11T07:31:58;5.82;;;2.33;;
5277;SDS011;2662;51.194;6.614;2024-01-11T07:34:26;2.58;;;2.38;;
5277;SDS011;2662;51.194;6.614;2024-01-11T07:36:53;2.88;;;2.67;;
5277;SDS011;2662;51.194;6.614;2024-01-11T07:39:20;3.50;;;2.38;;
5277;SDS011;2662;51.194;6.614;2024-01-11T07:41:49;4.35;;;2.38;;
5277;SDS011;2662;51.194;6.614;2024-01-11T07:44:17;3.20;;;1.95;;
5277;SDS011;2662;51.194;6.614;2024-01-11T07:46:45;1.58;;;1.42;;
5277;SDS011;2662;51.194;6.614;2024-01-11T07:49:12;5.55;;;2.85;;
5277;SDS011;2662;51.194;6.614;2024-01-11T07:51:40;5.35;;;3.05;;
5277;SDS011;2662;51.194;6.614;2024-01-11T07:54:07;4.97;;;4.15;;
5277;SDS011;2662;51.194;6.614;2024-01-11T07:56:34;2.28;;;1.85;;
5277;SDS011;2662;51.194;6.614;2024-01-11T07:59:01;9.07;;;2.13;;
5277;SDS011;2662;51.194;6.614;2024-01-11T08:01:27;2.10;;;1.98;;
5277;SDS011;2662;51.194;6.614;2024-01-11T08:03:54;2.17;;;0.93;;
5277;SDS011;2662;51.194;6.614;2024-01-11T08:06:21;1.13;;;1.13;;
5277;SDS011;2662;51.194;6.614;2024-01-11T08:08:49;3.60;;;2.50;;
5277;SDS011;2662;51.194;6.614;2024-01-11T08:11:17;2.83;;;2.63;;
5277;SDS011;2662;51.194;6.614;2024-01-11T08:13:44;2.88;;;2.78;;
5277;SDS011;2662;51.194;6.614;2024-01-11T08:16:14;2.97;;;2.70;;
5277;SDS011;2662;51.194;6.614;2024-01-11T08:18:42;2.15;;;1.95;;
5277;SDS011;2662;51.194;6.614;2024-01-11T08:21:10;12.60;;;2.00;;
5277;SDS011;2662;51.194;6.614;2024-01-11T08:23:39;2.10;;;2.00;;
5277;SDS011;2662;51.194;6.614;2024-01-11T08:26:10;3.67;;;3.05;;
5277;SDS011;2662;51.194;6.614;2024-01-11T08:28:37;1.63;;;1.55;;
5277;SDS011;2662;51.194;6.614;2024-01-11T08:31:05;3.25;;;1.80;;
5277;SDS011;2662;51.194;6.614;2024-01-11T08:33:32;2.72;;;2.20;;
5277;SDS011;2662;51.194;6.614;2024-01-11T08:35:58;5.15;;;2.25;;
5277;SDS011;2662;51.194;6.614;2024-01-11T08:38:25;5.10;;;3.80;;
5277;SDS011;2662;51.194;6.614;2024-01-11T08:40:52;3.85;;;2.75;;
5277;SDS011;2662;51.194;6.614;2024-01-11T08:43:20;21.33;;;3.63;;
5277;SDS011;2662;51.194;6.614;2024-01-11T08:45:47;4.18;;;3.65;;
5277;SDS011;2662;51.194;6.614;2024-01-11T08:48:14;10.20;;;3.97;;
5277;SDS011;2662;51.194;6.614;2024-01-11T08:50:41;6.05;;;2.95;;
5277;SDS011;2662;51.194;6.614;2024-01-11T08:53:07;16.90;;;5.27;;
5277;SDS011;2662;51.194;6.614;2024-01-11T08:55:34;14.40;;;3.60;;
5277;SDS011;2662;51.194;6.614;2024-01-11T08:58:02;10.70;;;4.30;;
5277;SDS011;2662;51.194;6.614;2024-01-11T09:00:31;9.80;;;5.60;;
5277;SDS011;2662;51.194;6.614;2024-01-11T09:02:59;25.03;;;6.17;;
5277;SDS011;2662;51.194;6.614;2024-01-11T09:05:26;9.57;;;5.07;;
5277;SDS011;2662;51.194;6.614;2024-01-11T09:07:52;6.50;;;3.63;;
5277;SDS011;2662;51.194;6.614;2024-01-11T09:10:19;9.47;;;5.00;;
5277;SDS011;2662;51.194;6.614;2024-01-11T09:12:46;13.40;;;4.23;;
5277;SDS011;2662;51.194;6.614;2024-01-11T09:15:13;9.63;;;5.10;;
5277;SDS011;2662;51.194;6.614;2024-01-11T09:17:44;4.90;;;4.27;;
5277;SDS011;2662;51.194;6.614;2024-01-11T09:20:13;9.93;;;5.40;;
5277;SDS011;2662;51.194;6.614;2024-01-11T09:22:40;6.30;;;4.90;;
5277;SDS011;2662;51.194;6.614;2024-01-11T09:25:07;8.73;;;5.03;;
5277;SDS011;2662;51.194;6.614;2024-01-11T09:27:34;9.87;;;5.43;;
5277;SDS011;2662;51.194;6.614;2024-01-11T09:30:01;13.00;;;6.33;;
5277;SDS011;2662;51.194;6.614;2024-01-11T09:32:30;16.57;;;6.60;;
5277;SDS011;2662;51.194;6.614;2024-01-11T09:35:00;10.97;;;5.07;;
5277;SDS011;2662;51.194;6.614;2024-01-11T09:37:27;14.97;;;5.90;;
5277;SDS011;2662;51.194;6.614;2024-01-11T09:39:57;18.20;;;6.40;;
5277;SDS011;2662;51.194;6.614;2024-01-11T09:42:26;32.87;;;6.57;;
5277;SDS011;2662;51.194;6.614;2024-01-11T09:44:54;10.37;;;5.80;;
5277;SDS011;2662;51.194;6.614;2024-01-11T09:47:23;13.13;;;5.13;;
5277;SDS011;2662;51.194;6.614;2024-01-11T09:49:53;23.07;;;6.43;;
5277;SDS011;2662;51.194;6.614;2024-01-11T09:52:22;10.47;;;6.17;;
5277;SDS011;2662;51.194;6.614;2024-01-11T09:54:51;6.73;;;4.07;;
5277;SDS011;2662;51.194;6.614;2024-01-11T09:57:21;14.20;;;6.30;;
5277;SDS011;2662;51.194;6.614;2024-01-11T09:59:50;15.37;;;5.67;;
5277;SDS011;2662;51.194;6.614;2024-01-11T10:02:25;9.30;;;5.80;;
5277;SDS011;2662;51.194;6.614;2024-01-11T10:04:53;10.13;;;3.70;;
5277;SDS011;2662;51.194;6.614;2024-01-11T10:07:21;6.50;;;3.87;;
5277;SDS011;2662;51.194;6.614;2024-01-11T10:09:50;13.30;;;5.53;;
5277;SDS011;2662;51.194;6.614;2024-01-11T10:12:18;13.90;;;6.00;;
5277;SDS011;2662;51.194;6.614;2024-01-11T10:14:48;10.60;;;5.77;;
5277;SDS011;2662;51.194;6.614;2024-01-11T10:17:22;9.80;;;4.80;;
5277;SDS011;2662;51.194;6.614;2024-01-11T10:19:58;21.33;;;5.77;;
5277;SDS011;2662;51.194;6.614;2024-01-11T10:22:31;14.20;;;6.10;;
5277;SDS011;2662;51.194;6.614;2024-01-11T10:25:08;13.07;;;4.77;;
5277;SDS011;2662;51.194;6.614;2024-01-11T10:27:40;13.83;;;4.87;;
5277;SDS011;2662;51.194;6.614;2024-01-11T10:30:09;12.57;;;7.00;;
5277;SDS011;2662;51.194;6.614;2024-01-11T10:32:38;8.13;;;4.53;;
5277;SDS011;2662;51.194;6.614;2024-01-11T10:35:07;8.50;;;4.83;;
5277;SDS011;2662;51.194;6.614;2024-01-11T10:37:38;13.53;;;4.77;;
5277;SDS011;2662;51.194;6.614;2024-01-11T10:40:05;10.30;;;6.60;;
5277;SDS011;2662;51.194;6.614;2024-01-11T10:42:39;7.20;;;4.30;;
5277;SDS011;2662;51.194;6.614;2024-01-11T10:45:09;11.93;;;5.20;;
5277;SDS011;2662;51.194;6.614;2024-01-11T10:47:39;10.57;;;5.37;;
5277;SDS011;2662;51.194;6.614;2024-01-11T10:50:15;13.00;;;6.00;;
5277;SDS011;2662;51.194;6.614;2024-01-11T10:52:46;7.63;;;4.93;;
5277;SDS011;2662;51.194;6.614;2024-01-11T10:55:22;10.73;;;5.80;;
5277;SDS011;2662;51.194;6.614;2024-01-11T10:57:50;14.87;;;4.90;;
5277;SDS011;2662;51.194;6.614;2024-01-11T11:00:19;7.07;;;4.90;;
5277;SDS011;2662;51.194;6.614;2024-01-11T11:02:47;13.52;;;6.65;;
5277;SDS011;2662;51.194;6.614;2024-01-11T11:05:16;4.73;;;3.73;;
5277;SDS011;2662;51.194;6.614;2024-01-11T11:07:45;7.83;;;4.17;;
5277;SDS011;2662;51.194;6.614;2024-01-11T11:10:13;5.77;;;3.87;;
5277;SDS011;2662;51.194;6.614;2024-01-11T11:12:40;17.40;;;5.57;;
5277;SDS011;2662;51.194;6.614;2024-01-11T11:15:09;7.72;;;3.60;;
5277;SDS011;2662;51.194;6.614;2024-01-11T11:17:39;10.47;;;5.03;;
5277;SDS011;2662;51.194;6.614;2024-01-11T11:20:06;8.13;;;4.73;;
5277;SDS011;2662;51.194;6.614;2024-01-11T11:22:34;6.30;;;3.43;;
5277;SDS011;2662;51.194;6.614;2024-01-11T11:25:06;8.73;;;5.60;;
5277;SDS011;2662;51.194;6.614;2024-01-11T11:27:36;8.47;;;5.37;;
5277;SDS011;2662;51.194;6.614;2024-01-11T11:30:04;10.77;;;4.50;;
5277;SDS011;2662;51.194;6.614;2024-01-11T11:32:35;3.80;;;3.13;;
5277;SDS011;2662;51.194;6.614;2024-01-11T11:35:02;10.20;;;4.90;;
5277;SDS011;2662;51.194;6.614;2024-01-11T11:37:30;10.53;;;4.93;;
5277;SDS011;2662;51.194;6.614;2024-01-11T11:39:57;11.17;;;5.30;;
5277;SDS011;2662;51.194;6.614;2024-01-11T11:42:26;22.70;;;5.63;;
5277;SDS011;2662;51.194;6.614;2024-01-11T11:44:56;11.37;;;6.20;;
5277;SDS011;2662;51.194;6.614;2024-01-11T11:47:23;13.60;;;5.23;;
5277;SDS011;2662;51.194;6.614;2024-01-11T11:50:02;13.33;;;5.10;;
5277;SDS011;2662;51.194;6.614;2024-01-11T11:52:32;7.67;;;4.20;;
5277;SDS011;2662;51.194;6.614;2024-01-11T11:55:00;7.67;;;4.77;;
5277;SDS011;2662;51.194;6.614;2024-01-11T11:57:29;12.07;;;5.33;;
5277;SDS011;2662;51.194;6.614;2024-01-11T11:59:57;14.50;;;5.87;;
5277;SDS011;2662;51.194;6.614;2024-01-11T12:02:31;10.80;;;5.30;;
5277;SDS011;2662;51.194;6.614;2024-01-11T12:05:01;19.43;;;5.13;;
5277;SDS011;2662;51.194;6.614;2024-01-11T12:07:41;13.13;;;5.53;;
5277;SDS011;2662;51.194;6.614;2024-01-11T12:10:08;14.87;;;7.87;;
5277;SDS011;2662;51.194;6.614;2024-01-11T12:12:36;25.97;;;5.70;;
5277;SDS011;2662;51.194;6.614;2024-01-11T12:15:07;5.07;;;4.20;;
5277;SDS011;2662;51.194;6.614;2024-01-11T12:17:36;13.07;;;6.00;;
5277;SDS011;2662;51.194;6.614;2024-01-11T12:20:09;26.13;;;6.23;;
5277;SDS011;2662;51.194;6.614;2024-01-11T12:22:42;11.67;;;5.30;;
5277;SDS011;2662;51.194;6.614;2024-01-11T12:25:09;11.40;;;5.50;;
5277;SDS011;2662;51.194;6.614;2024-01-11T12:27:40;10.17;;;4.33;;
5277;SDS011;2662;51.194;6.614;2024-01-11T12:30:10;5.47;;;3.57;;
5277;SDS011;2662;51.194;6.614;2024-01-11T12:32:41;18.30;;;6.13;;
5277;SDS011;2662;51.194;6.614;2024-01-11T12:35:09;14.43;;;6.87;;
5277;SDS011;2662;51.194;6.614;2024-01-11T12:37:36;12.27;;;3.53;;
5277;SDS011;2662;51.194;6.614;2024-01-11T12:40:03;9.83;;;5.33;;
5277;SDS011;2662;51.194;6.614;2024-01-11T12:42:33;7.43;;;4.27;;
5277;SDS011;2662;51.194;6.614;2024-01-11T12:45:07;10.30;;;4.63;;
5277;SDS011;2662;51.194;6.614;2024-01-11T12:47:36;11.03;;;6.20;;
5277;SDS011;2662;51.194;6.614;2024-01-11T12:50:07;11.30;;;4.97;;
5277;SDS011;2662;51.194;6.614;2024-01-11T12:52:36;7.57;;;4.63;;
5277;SDS011;2662;51.194;6.614;2024-01-11T12:55:04;11.40;;;4.33;;
5277;SDS011;2662;51.194;6.614;2024-01-11T12:57:34;7.10;;;4.57;;
5277;SDS011;2662;51.194;6.614;2024-01-11T13:00:13;7.60;;;4.77;;
5277;SDS011;2662;51.194;6.614;2024-01-11T13:02:41;12.10;;;5.67;;
5277;SDS011;2662;51.194;6.614;2024-01-11T13:05:11;8.67;;;6.10;;
5277;SDS011;2662;51.194;6.614;2024-01-11T13:07:39;14.03;;;5.33;;
5277;SDS011;2662;51.194;6.614;2024-01-11T13:10:06;8.33;;;5.37;;
5277;SDS011;2662;51.194;6.614;2024-01-11T13:12:33;10.63;;;5.07;;
5277;SDS011;2662;51.194;6.614;2024-01-11T13:15:01;14.37;;;6.10;;
5277;SDS011;2662;51.194;6.614;2024-01-11T13:17:31;11.50;;;5.77;;
5277;SDS011;2662;51.194;6.614;2024-01-11T13:19:58;10.63;;;5.87;;
5277;SDS011;2662;51.194;6.614;2024-01-11T13:22:26;20.60;;;8.07;;
5277;SDS011;2662;51.194;6.614;2024-01-11T13:24:53;10.03;;;5.27;;
5277;SDS011;2662;51.194;6.614;2024-01-11T13:27:20;13.47;;;5.77;;
5277;SDS011;2662;51.194;6.614;2024-01-11T13:29:47;8.97;;;5.03;;
5277;SDS011;2662;51.194;6.614;2024-01-11T13:32:13;6.93;;;4.33;;
5277;SDS011;2662;51.194;6.614;2024-01-11T13:34:42;8.60;;;4.90;;
5277;SDS011;2662;51.194;6.614;2024-01-11T13:37:11;8.53;;;4.17;;
5277;SDS011;2662;51.194;6.614;2024-01-11T13:39:38;7.70;;;4.50;;
5277;SDS011;2662;51.194;6.614;2024-01-11T13:42:05;7.40;;;5.40;;
5277;SDS011;2662;51.194;6.614;2024-01-11T13:44:34;10.87;;;4.90;;
5277;SDS011;2662;51.194;6.614;2024-01-11T13:47:01;16.00;;;5.33;;
5277;SDS011;2662;51.194;6.614;2024-01-11T13:49:29;10.13;;;5.50;;
5277;SDS011;2662;51.194;6.614;2024-01-11T13:51:57;11.63;;;4.47;;
5277;SDS011;2662;51.194;6.614;2024-01-11T13:54:24;11.10;;;6.37;;
5277;SDS011;2662;51.194;6.614;2024-01-11T13:56:51;10.00;;;5.03;;
5277;SDS011;2662;51.194;6.614;2024-01-11T13:59:18;9.70;;;4.60;;
5277;SDS011;2662;51.194;6.614;2024-01-11T14:01:45;6.83;;;4.43;;
5277;SDS011;2662;51.194;6.614;2024-01-11T14:04:12;6.30;;;4.37;;
5277;SDS011;2662;51.194;6.614;2024-01-11T14:06:40;8.20;;;3.40;;
5277;SDS011;2662;51.194;6.614;2024-01-11T14:09:09;6.53;;;3.73;;
5277;SDS011;2662;51.194;6.614;2024-01-11T14:11:43;4.77;;;3.90;;
5277;SDS011;2662;51.194;6.614;2024-01-11T14:14:13;4.77;;;3.13;;
5277;SDS011;2662;51.194;6.614;2024-01-11T14:16:40;14.50;;;5.00;;
5277;SDS011;2662;51.194;6.614;2024-01-11T14:19:07;8.23;;;6.03;;
5277;SDS011;2662;51.194;6.614;2024-01-11T14:21:34;3.50;;;3.13;;
5277;SDS011;2662;51.194;6.614;2024-01-11T14:24:01;4.50;;;4.13;;
5277;SDS011;2662;51.194;6.614;2024-01-11T14:26:30;5.63;;;3.57;;
5277;SDS011;2662;51.194;6.614;2024-01-11T14:28:58;7.50;;;4.37;;
5277;SDS011;2662;51.194;6.614;2024-01-11T14:31:26;4.10;;;2.53;;
5277;SDS011;2662;51.194;6.614;2024-01-11T14:33:53;5.20;;;3.37;;
5277;SDS011;2662;51.194;6.614;2024-01-11T14:36:22;7.37;;;4.67;;
5277;SDS011;2662;51.194;6.614;2024-01-11T14:38:49;3.90;;;2.40;;
5277;SDS011;2662;51.194;6.614;2024-01-11T14:41:15;5.53;;;2.70;;
5277;SDS011;2662;51.194;6.614;2024-01-11T14:43:43;8.60;;;4.70;;
5277;SDS011;2662;51.194;6.614;2024-01-11T14:46:11;4.80;;;3.40;;
5277;SDS011;2662;51.194;6.614;2024-01-11T14:48:39;6.00;;;3.47;;
5277;SDS011;2662;51.194;6.614;2024-01-11T14:51:06;5.83;;;4.07;;
5277;SDS011;2662;51.194;6.614;2024-01-11T14:53:34;9.30;;;3.33;;
5277;SDS011;2662;51.194;6.614;2024-01-11T14:56:02;4.87;;;3.00;;
5277;SDS011;2662;51.194;6.614;2024-01-11T14:58:29;7.47;;;3.93;;
5277;SDS011;2662;51.194;6.614;2024-01-11T15:00:58;9.57;;;4.57;;
5277;SDS011;2662;51.194;6.614;2024-01-11T15:03:25;7.67;;;3.77;;
5277;SDS011;2662;51.194;6.614;2024-01-11T15:05:54;4.97;;;3.27;;
5277;SDS011;2662;51.194;6.614;2024-01-11T15:08:21;7.10;;;3.40;;
5277;SDS011;2662;51.194;6.614;2024-01-11T15:10:48;15.47;;;4.37;;
5277;SDS011;2662;51.194;6.614;2024-01-11T15:13:16;2.40;;;2.10;;
5277;SDS011;2662;51.194;6.614;2024-01-11T15:15:42;4.33;;;2.87;;